createdAt,value
2019-04-01T00:04:51.283Z,14.57
2019-04-01T00:09:57.131Z,11.40
2019-04-01T00:15:06.053Z,10.90
2019-04-01T00:20:12.896Z,13.67
2019-04-01T00:25:18.864Z,15.07
2019-04-01T00:30:24.849Z,9.40
2019-04-01T00:35:30.816Z,13.67
2019-04-01T00:40:36.836Z,12.40
2019-04-01T00:45:46.972Z,14.00
2019-04-01T00:50:53.121Z,9.00
2019-04-01T00:55:58.983Z,11.67
2019-04-01T01:01:05.204Z,16.40
2019-04-01T01:06:11.020Z,14.33
2019-04-01T01:11:16.960Z,9.87
2019-04-01T01:16:22.884Z,10.43
2019-04-01T01:21:28.745Z,15.23
2019-04-01T01:26:34.822Z,13.07
2019-04-01T01:31:40.718Z,12.30
2019-04-01T01:36:46.780Z,14.17
2019-04-01T01:41:52.639Z,10.07
2019-04-01T01:46:58.529Z,13.17
2019-04-01T01:52:04.387Z,13.13
2019-04-01T01:57:10.361Z,12.10
2019-04-01T02:02:16.139Z,11.37
2019-04-01T02:07:22.093Z,10.23
2019-04-01T02:12:28.025Z,12.30
2019-04-01T02:17:33.882Z,12.53
2019-04-01T02:22:40.075Z,19.60
2019-04-01T02:27:46.356Z,9.50
2019-04-01T02:32:52.585Z,10.33
2019-04-01T02:37:58.682Z,15.57
2019-04-01T02:43:04.733Z,10.27
2019-04-01T02:48:10.599Z,9.73
2019-04-01T02:53:16.488Z,11.93
2019-04-01T02:58:22.521Z,10.83
2019-04-01T03:03:28.419Z,11.63
2019-04-01T03:08:35.422Z,8.50
2019-04-01T03:13:43.944Z,9.80
2019-04-01T03:18:50.017Z,7.93
2019-04-01T03:23:55.996Z,8.43
2019-04-01T03:29:01.867Z,7.17
2019-04-01T03:34:07.872Z,12.83
2019-04-01T03:39:14.737Z,9.97
2019-04-01T03:44:20.606Z,8.60
2019-04-01T03:49:27.542Z,8.17
2019-04-01T03:54:33.506Z,12.93
2019-04-01T03:59:39.443Z,10.93
2019-04-01T04:04:45.526Z,10.40
2019-04-01T04:09:51.406Z,14.57
2019-04-01T04:14:57.370Z,10.30
2019-04-01T04:20:03.265Z,13.43
2019-04-01T04:25:09.628Z,9.80
2019-04-01T04:30:19.700Z,10.67
2019-04-01T04:35:25.607Z,7.63
2019-04-01T04:40:31.495Z,11.27
2019-04-01T04:45:37.457Z,13.70
2019-04-01T04:50:43.421Z,7.50
2019-04-01T04:55:49.363Z,12.23
2019-04-01T05:00:55.285Z,7.63
2019-04-01T05:06:01.406Z,9.80
2019-04-01T05:11:08.540Z,9.87
2019-04-01T05:16:14.417Z,10.87
2019-04-01T05:21:20.374Z,9.70
2019-04-01T05:26:26.843Z,12.93
2019-04-01T05:31:34.470Z,7.90
2019-04-01T05:36:40.359Z,9.00
2019-04-01T05:41:46.477Z,7.03
2019-04-01T05:46:52.475Z,7.90
2019-04-01T05:51:58.601Z,10.03
2019-04-01T05:57:04.689Z,7.60
2019-04-01T06:02:10.841Z,11.33
2019-04-01T06:07:16.945Z,7.57
2019-04-01T06:12:24.217Z,8.17
2019-04-01T06:17:30.473Z,7.97
2019-04-01T06:22:36.331Z,10.90
2019-04-01T06:27:44.603Z,10.37
2019-04-01T06:32:50.669Z,10.17
2019-04-01T06:37:56.609Z,12.70
2019-04-01T06:43:02.475Z,6.83
2019-04-01T06:48:08.649Z,6.47
2019-04-01T06:53:14.779Z,5.33
2019-04-01T06:58:20.654Z,8.87
2019-04-01T07:03:26.642Z,7.87
2019-04-01T07:08:32.878Z,3.70
2019-04-01T07:13:40.207Z,2.83
2019-04-01T07:18:47.277Z,2.90
2019-04-01T07:23:53.587Z,2.37
2019-04-01T07:29:00.029Z,3.40
2019-04-01T07:34:07.240Z,4.30
2019-04-01T07:39:13.119Z,4.10
2019-04-01T07:44:19.195Z,4.23
2019-04-01T07:49:25.174Z,3.77
2019-04-01T07:54:31.244Z,3.80
2019-04-01T07:59:37.013Z,3.33
2019-04-01T08:04:43.633Z,3.37
2019-04-01T08:09:49.880Z,4.50
2019-04-01T08:14:55.955Z,5.07
2019-04-01T08:20:02.474Z,5.03
2019-04-01T08:25:08.618Z,2.20
2019-04-01T08:30:15.240Z,5.00
2019-04-01T08:35:21.281Z,7.00
2019-04-01T08:40:27.154Z,3.43
2019-04-01T08:45:33.390Z,3.37
2019-04-01T08:50:39.206Z,3.47
2019-04-01T08:55:45.369Z,4.70
2019-04-01T09:00:51.559Z,2.50
2019-04-01T09:05:57.433Z,5.23
2019-04-01T09:11:03.817Z,2.60
2019-04-01T09:16:09.677Z,7.07
2019-04-01T09:21:15.546Z,3.47
2019-04-01T09:26:21.423Z,4.07
2019-04-01T09:31:27.713Z,3.13
2019-04-01T09:36:33.470Z,4.63
2019-04-01T09:41:40.422Z,2.93
2019-04-01T09:46:49.036Z,3.47
2019-04-01T09:51:54.870Z,5.90
2019-04-01T09:57:00.844Z,3.07
2019-04-01T10:02:06.871Z,3.53
2019-04-01T10:07:12.784Z,2.23
2019-04-01T10:12:18.557Z,1.90
2019-04-01T10:17:24.601Z,1.43
2019-04-01T10:22:30.479Z,4.10
2019-04-01T10:27:36.678Z,2.10
2019-04-01T10:32:42.555Z,2.93
2019-04-01T10:37:48.608Z,1.90
2019-04-01T10:42:54.600Z,2.83
2019-04-01T10:48:00.840Z,2.93
2019-04-01T10:53:07.111Z,4.60
2019-04-01T10:58:13.055Z,1.93
2019-04-01T11:03:19.128Z,1.67
2019-04-01T11:08:25.405Z,1.90
2019-04-01T11:13:31.330Z,2.17
2019-04-01T11:18:37.336Z,2.33
2019-04-01T11:23:43.518Z,2.60
2019-04-01T11:28:49.388Z,2.77
2019-04-01T11:33:55.389Z,4.63
2019-04-01T11:39:01.338Z,3.43
2019-04-01T11:44:09.360Z,3.63
2019-04-01T11:49:15.201Z,5.40
2019-04-01T11:54:21.101Z,3.67
2019-04-01T11:59:28.139Z,4.70
2019-04-01T12:04:34.185Z,1.73
2019-04-01T12:09:40.190Z,3.63
2019-04-01T12:14:46.474Z,4.07
2019-04-01T12:19:56.242Z,3.10
2019-04-01T12:25:04.750Z,2.57
2019-04-01T12:30:10.798Z,2.30
2019-04-01T12:35:16.724Z,2.77
2019-04-01T12:40:22.677Z,5.50
2019-04-01T12:45:29.657Z,3.37
2019-04-01T12:50:35.636Z,1.93
2019-04-01T12:55:44.861Z,3.00
2019-04-01T13:00:49.306Z,2.80
2019-04-01T13:05:55.550Z,3.37
2019-04-01T13:11:01.395Z,3.30
2019-04-01T13:16:09.005Z,1.97
2019-04-01T13:21:14.850Z,3.13
2019-04-01T13:26:21.079Z,3.07
2019-04-01T13:31:26.843Z,1.53
2019-04-01T13:36:32.701Z,2.00
2019-04-01T13:41:42.687Z,2.80
2019-04-01T13:46:48.562Z,2.63
2019-04-01T13:51:54.208Z,2.57
2019-04-01T13:57:00.308Z,3.47
2019-04-01T14:02:06.448Z,1.70
2019-04-01T14:07:13.634Z,2.03
2019-04-01T14:12:19.697Z,1.83
2019-04-01T14:17:25.774Z,4.57
2019-04-01T14:22:31.878Z,3.03
2019-04-01T14:27:39.469Z,2.30
2019-04-01T14:32:45.846Z,2.37
2019-04-01T14:37:51.916Z,3.37
2019-04-01T14:42:57.891Z,2.40
2019-04-01T14:48:03.794Z,4.17
2019-04-01T14:53:10.210Z,2.40
2019-04-01T14:58:16.670Z,2.77
2019-04-01T15:03:22.542Z,2.60
2019-04-01T15:08:28.579Z,2.23
2019-04-01T15:13:36.502Z,2.23
2019-04-01T15:18:42.405Z,4.33
2019-04-01T15:23:48.281Z,3.40
2019-04-01T15:28:54.259Z,2.67
2019-04-01T15:34:00.131Z,6.33
2019-04-01T15:39:08.612Z,3.13
2019-04-01T15:44:14.417Z,2.53
2019-04-01T15:49:20.824Z,1.93
2019-04-01T15:54:26.805Z,1.67
2019-04-01T15:59:32.695Z,3.33
2019-04-01T16:04:38.691Z,2.80
2019-04-01T16:09:44.665Z,2.47
2019-04-01T16:14:50.538Z,3.17
2019-04-01T16:19:57.319Z,3.47
2019-04-01T16:25:04.750Z,4.87
2019-04-01T16:30:10.851Z,4.20
2019-04-01T16:35:16.712Z,2.87
2019-04-01T16:40:22.595Z,2.77
2019-04-01T16:45:28.898Z,4.10
2019-04-01T16:50:34.952Z,4.13
2019-04-01T16:55:40.798Z,5.00
2019-04-01T17:00:46.722Z,5.37
2019-04-01T17:05:53.814Z,7.07
2019-04-01T17:10:59.792Z,6.37
2019-04-01T17:16:06.006Z,4.07
2019-04-01T17:21:11.975Z,3.87
2019-04-01T17:26:17.920Z,5.07
2019-04-01T17:31:23.829Z,5.83
2019-04-01T17:36:29.688Z,7.93
2019-04-01T17:41:35.916Z,9.40
2019-04-01T17:46:41.952Z,6.00
2019-04-01T17:51:49.482Z,7.43
2019-04-01T17:56:55.540Z,7.60
2019-04-01T18:02:01.504Z,8.80
2019-04-01T18:07:07.555Z,6.07
2019-04-01T18:12:13.813Z,5.33
2019-04-01T18:17:19.939Z,3.90
2019-04-01T18:22:25.753Z,3.07
2019-04-01T18:27:31.549Z,4.77
2019-04-01T18:32:37.552Z,6.37
2019-04-01T18:37:44.551Z,3.77
2019-04-01T18:42:50.466Z,4.37
2019-04-01T18:47:56.307Z,4.63
2019-04-01T18:53:02.350Z,4.00
2019-04-01T18:58:08.351Z,9.13
2019-04-01T19:03:14.729Z,9.40
2019-04-01T19:08:20.603Z,3.77
2019-04-01T19:13:26.611Z,3.67
2019-04-01T19:18:32.550Z,5.23
2019-04-01T19:23:38.415Z,4.30
2019-04-01T19:28:44.381Z,4.60
2019-04-01T19:33:50.260Z,4.63
2019-04-01T19:38:56.245Z,3.90
2019-04-01T19:44:02.190Z,4.60
2019-04-01T19:49:08.020Z,4.03
2019-04-01T19:54:14.313Z,4.78
2019-04-01T19:59:21.197Z,5.37
2019-04-01T20:04:27.961Z,3.17
2019-04-01T20:09:34.129Z,4.53
2019-04-01T20:14:40.438Z,4.30
2019-04-01T20:19:46.511Z,3.00
2019-04-01T20:24:52.408Z,4.23
2019-04-01T20:29:58.351Z,5.67
2019-04-01T20:35:05.376Z,5.60
2019-04-01T20:40:11.710Z,6.17
2019-04-01T20:45:18.590Z,5.07
2019-04-01T20:50:24.683Z,3.30
2019-04-01T20:55:32.200Z,5.47
2019-04-01T21:00:38.238Z,4.40
2019-04-01T21:05:44.679Z,5.20
2019-04-01T21:10:50.545Z,5.50
2019-04-01T21:15:56.445Z,6.57
2019-04-01T21:21:02.507Z,4.73
2019-04-01T21:26:08.428Z,5.40
2019-04-01T21:31:14.311Z,6.67
2019-04-01T21:36:20.243Z,4.67
2019-04-01T21:41:26.175Z,4.97
2019-04-01T21:46:32.339Z,3.80
2019-04-01T21:51:38.409Z,5.43
2019-04-01T21:56:44.173Z,4.80
2019-04-01T22:01:50.045Z,7.47
2019-04-01T22:06:56.141Z,6.00
2019-04-01T22:12:01.994Z,5.23
2019-04-01T22:17:08.174Z,6.10
2019-04-01T22:22:13.952Z,4.03
2019-04-01T22:27:19.920Z,4.10
2019-04-01T22:32:25.788Z,4.90
2019-04-01T22:37:31.770Z,4.17
2019-04-01T22:42:37.639Z,7.40
2019-04-01T22:47:45.336Z,5.53
2019-04-01T22:52:51.113Z,6.87
2019-04-01T22:57:57.086Z,6.13
2019-04-01T23:03:02.935Z,6.03
2019-04-01T23:08:08.980Z,5.83
2019-04-01T23:13:14.818Z,8.40
2019-04-01T23:18:21.064Z,5.93
2019-04-01T23:23:28.159Z,4.57
2019-04-01T23:28:34.265Z,7.10
2019-04-01T23:33:41.807Z,4.80
2019-04-01T23:38:47.785Z,6.17
2019-04-01T23:43:54.197Z,7.80
2019-04-01T23:49:01.027Z,4.27
2019-04-01T23:54:08.031Z,5.30
2019-04-01T23:59:14.040Z,5.30
